Time;durP1;ratioP1;P1;durP2;ratioP2;P2;SDS_P1;SDS_P2;PMS_P1;PMS_P2;Temp;Humidity;BMP_temperature;BMP_pressure;BME280_temperature;BME280_humidity;BME280_pressure;Samples;Min_cycle;Max_cycle;Signal;HPM_P1;HPM_P2
2023/05/12 00:01:55;;;;;;;6.60;6.00;;;;;;;11.39;nan;99234.81;6134917;23;20190;-84
2023/05/12 00:04:22;;;;;;;6.40;5.80;;;;;;;11.51;nan;99234.81;6134672;23;20182;-84
2023/05/12 00:06:49;;;;;;;6.23;5.73;;;;;;;11.40;nan;99237.28;6159712;23;20632;-81
2023/05/12 00:09:15;;;;;;;6.00;5.50;;;;;;;11.48;nan;99236.91;6158849;23;20181;-84
2023/05/12 00:11:42;;;;;;;6.20;5.60;;;;;;;11.43;nan;99226.06;6110715;23;20174;-83
2023/05/12 00:14:09;;;;;;;6.63;5.90;;;;;;;11.44;nan;99229.56;6135107;23;20232;-82
2023/05/12 00:16:36;;;;;;;6.10;5.60;;;;;;;11.33;nan;99231.22;6110186;23;20171;-83
2023/05/12 00:19:02;;;;;;;6.23;5.73;;;;;;;11.45;nan;99228.53;6134696;23;20549;-83
2023/05/12 00:21:29;;;;;;;6.30;5.80;;;;;;;11.41;nan;99233.56;6134924;23;20175;-83
2023/05/12 00:23:56;;;;;;;6.20;5.63;;;;;;;11.41;nan;99238.09;6134515;23;20186;-83
2023/05/12 00:26:23;;;;;;;6.60;6.00;;;;;;;11.44;nan;99237.63;6135284;23;20151;-82
2023/05/12 00:28:50;;;;;;;6.17;5.50;;;;;;;11.45;nan;99239.25;6159458;23;20551;-82
2023/05/12 00:31:17;;;;;;;6.27;5.77;;;;;;;11.46;nan;99232.84;6134797;23;20174;-83
2023/05/12 00:33:43;;;;;;;6.50;5.90;;;;;;;11.41;nan;99232.72;6134079;23;20220;-83
2023/05/12 00:36:10;;;;;;;6.23;5.73;;;;;;;11.44;nan;99229.56;6134826;23;20170;-83
2023/05/12 00:38:37;;;;;;;6.07;5.57;;;;;;;11.41;nan;99230.03;6134524;23;20233;-84
2023/05/12 00:41:04;;;;;;;6.77;6.10;;;;;;;11.49;nan;99227.00;6134479;23;20245;-83
2023/05/12 00:43:32;;;;;;;6.63;6.03;;;;;;;11.48;nan;99222.69;6110002;23;20322;-83
2023/05/12 00:46:00;;;;;;;6.73;6.17;;;;;;;11.54;nan;99223.63;6135126;23;20181;-84
2023/05/12 00:48:27;;;;;;;6.77;6.17;;;;;;;11.49;nan;99218.94;6110493;23;20174;-84
2023/05/12 00:50:54;;;;;;;6.77;6.20;;;;;;;11.52;nan;99231.09;6110347;23;20250;-84
2023/05/12 00:53:23;;;;;;;6.80;6.20;;;;;;;11.51;nan;99219.53;6134608;23;20197;-84
2023/05/12 00:55:50;;;;;;;6.90;6.30;;;;;;;11.64;nan;99223.84;6134580;23;20249;-84
2023/05/12 00:58:17;;;;;;;6.37;5.80;;;;;;;11.39;nan;99218.72;6134810;23;20249;-85
2023/05/12 01:00:44;;;;;;;7.27;6.67;;;;;;;11.24;nan;99221.91;6110216;23;20170;-84
2023/05/12 01:03:11;;;;;;;7.57;6.87;;;;;;;11.37;nan;99234.25;6134226;23;20193;-82
2023/05/12 01:05:48;;;;;;;7.47;6.77;;;;;;;11.38;nan;99225.94;6158460;23;20166;-83
2023/05/12 01:08:18;;;;;;;7.37;6.67;;;;;;;11.36;nan;99232.63;6110345;23;20170;-82
2023/05/12 01:10:46;;;;;;;7.10;6.50;;;;;;;11.39;nan;99232.94;6110317;23;20163;-81
2023/05/12 01:13:15;;;;;;;7.70;7.00;;;;;;;11.34;nan;99232.03;6110912;23;20170;-84
2023/05/12 01:15:46;;;;;;;7.97;7.27;;;;;;;11.44;nan;99222.34;6134154;23;20174;-84
2023/05/12 01:18:18;;;;;;;8.23;7.43;;;;;;;11.41;nan;99228.19;6134009;23;20566;-83
2023/05/12 01:20:46;;;;;;;8.63;7.77;;;;;;;11.35;nan;99225.63;6109951;23;20178;-83
2023/05/12 01:23:16;;;;;;;8.33;7.63;;;;;;;11.29;nan;99223.88;6109848;23;20197;-83
2023/05/12 01:25:43;;;;;;;8.23;7.53;;;;;;;11.25;nan;99236.09;6127211;23;20202;-84
2023/05/12 01:28:10;;;;;;;8.50;7.70;;;;;;;11.21;nan;99227.72;6133130;23;20224;-83
2023/05/12 01:30:42;;;;;;;8.63;7.83;;;;;;;11.24;nan;99229.94;6133424;23;20648;-84
2023/05/12 01:33:11;;;;;;;8.23;7.43;;;;;;;11.25;nan;99233.41;6182294;23;20193;-82
2023/05/12 01:35:38;;;;;;;8.97;8.07;;;;;;;11.27;nan;99237.53;6157590;23;20231;-83
2023/05/12 01:38:05;;;;;;;7.90;7.20;;;;;;;11.26;nan;99235.88;6183608;23;20241;-83
2023/05/12 01:40:35;;;;;;;7.80;7.10;;;;;;;11.25;nan;99236.91;6158524;23;20177;-83
2023/05/12 01:43:03;;;;;;;8.33;7.53;;;;;;;11.28;nan;99239.16;6133228;23;20194;-82
2023/05/12 01:45:32;;;;;;;8.57;7.47;;;;;;;11.30;nan;99231.69;6133834;23;20170;-83
2023/05/12 01:47:59;;;;;;;8.10;7.40;;;;;;;11.31;nan;99238.69;6182641;23;20169;-83
2023/05/12 01:50:26;;;;;;;7.50;6.90;;;;;;;11.33;nan;99239.28;6157638;23;20244;-85
2023/05/12 01:52:53;;;;;;;7.80;7.10;;;;;;;11.36;nan;99240.66;6157769;23;20194;-82
2023/05/12 01:55:21;;;;;;;7.70;7.00;;;;;;;11.34;nan;99240.88;6157467;23;20177;-83
2023/05/12 01:57:55;;;;;;;7.60;7.00;;;;;;;11.36;nan;99246.84;6136463;23;20189;-84
2023/05/12 02:00:22;;;;;;;7.60;7.00;;;;;;;11.39;nan;99241.00;6157763;23;20170;-83
2023/05/12 02:02:52;;;;;;;7.63;6.93;;;;;;;11.44;nan;99235.75;6157852;23;20268;-83
2023/05/12 02:05:19;;;;;;;7.67;7.00;;;;;;;11.34;nan;99240.06;6158705;23;20626;-83
2023/05/12 02:07:48;;;;;;;7.47;6.77;;;;;;;11.29;nan;99240.75;6135205;23;20202;-82
2023/05/12 02:10:15;;;;;;;7.50;6.80;;;;;;;11.28;nan;99241.03;6158781;23;20174;-82
2023/05/12 02:12:43;;;;;;;7.53;6.83;;;;;;;11.34;nan;99234.69;6183901;23;20193;-85
2023/05/12 02:15:10;;;;;;;7.70;7.00;;;;;;;11.33;nan;99238.47;6158958;23;20628;-84
2023/05/12 02:17:41;;;;;;;6.80;6.20;;;;;;;11.36;nan;99230.75;6136596;23;20178;-82
2023/05/12 02:20:10;;;;;;;7.07;6.40;;;;;;;11.41;nan;99238.09;6158815;23;20297;-82
2023/05/12 02:22:37;;;;;;;6.87;6.27;;;;;;;11.43;nan;99234.13;6134695;23;20171;-83
2023/05/12 02:25:05;;;;;;;6.77;6.17;;;;;;;11.46;nan;99230.16;6131859;23;1212317;-83
2023/05/12 02:27:32;;;;;;;7.13;6.43;;;;;;;11.57;nan;99237.38;6137012;23;20179;-82
2023/05/12 02:29:59;;;;;;;7.13;6.43;;;;;;;11.39;nan;99232.94;6160332;23;20166;-83
2023/05/12 02:32:29;;;;;;;7.23;6.63;;;;;;;11.45;nan;99233.88;6185199;23;20695;-82
2023/05/12 02:34:56;;;;;;;7.53;6.73;;;;;;;11.46;nan;99235.53;6136073;23;20179;-83
2023/05/12 02:37:23;;;;;;;6.80;6.20;;;;;;;11.41;nan;99238.91;6160754;23;20171;-82
2023/05/12 02:39:50;;;;;;;6.80;6.20;;;;;;;11.38;nan;99234.00;6160067;23;20177;-82
2023/05/12 02:42:17;;;;;;;7.07;6.37;;;;;;;11.32;nan;99234.13;6185278;23;20171;-83
2023/05/12 02:44:44;;;;;;;7.13;6.43;;;;;;;11.31;nan;99237.84;6135987;23;20254;-83
2023/05/12 02:47:11;;;;;;;6.80;6.17;;;;;;;11.38;nan;99238.56;6160582;23;20170;-83
2023/05/12 02:49:37;;;;;;;6.83;6.20;;;;;;;11.30;nan;99233.53;6185446;23;20177;-85
2023/05/12 02:52:05;;;;;;;7.53;6.93;;;;;;;11.31;nan;99229.81;6160854;23;20735;-83
2023/05/12 02:54:32;;;;;;;7.33;6.70;;;;;;;11.34;nan;99242.75;6160671;23;20170;-84
2023/05/12 02:57:03;;;;;;;7.17;6.57;;;;;;;11.33;nan;99241.97;6160746;23;20174;-82
2023/05/12 02:59:31;;;;;;;7.50;6.80;;;;;;;11.34;nan;99240.06;6184747;23;20234;-83
2023/05/12 03:01:57;;;;;;;7.30;6.70;;;;;;;11.36;nan;99238.78;6136198;23;20182;-85
2023/05/12 03:04:24;;;;;;;7.13;6.43;;;;;;;11.33;nan;99243.81;6186234;23;20217;-83
2023/05/12 03:06:51;;;;;;;6.90;6.20;;;;;;;11.34;nan;99235.53;6185272;23;20163;-83
2023/05/12 03:09:18;;;;;;;6.30;5.80;;;;;;;11.36;nan;99241.47;6135809;23;20171;-84
2023/05/12 03:11:45;;;;;;;5.70;5.20;;;;;;;11.37;nan;99242.31;6135867;23;20180;-83
2023/05/12 03:14:11;;;;;;;7.10;6.40;;;;;;;11.39;nan;99232.13;6159793;23;20174;-84
2023/05/12 03:16:38;;;;;;;6.67;6.17;;;;;;;11.41;nan;99244.28;6135668;23;20166;-83
2023/05/12 03:19:05;;;;;;;6.97;6.37;;;;;;;11.32;nan;99232.28;6135530;23;20170;-83
2023/05/12 03:21:32;;;;;;;7.67;6.97;;;;;;;11.27;nan;99237.53;6135792;23;20234;-83
2023/05/12 03:23:59;;;;;;;7.73;7.03;;;;;;;11.36;nan;99235.28;6135411;23;20186;-85
2023/05/12 03:26:26;;;;;;;7.00;6.43;;;;;;;11.31;nan;99227.94;6135869;23;20637;-83
2023/05/12 03:28:53;;;;;;;6.73;6.13;;;;;;;11.34;nan;99227.47;6111133;23;20174;-83
2023/05/12 03:31:20;;;;;;;7.40;6.70;;;;;;;11.14;nan;99232.41;6111069;23;20170;-83
2023/05/12 03:33:46;;;;;;;7.00;6.30;;;;;;;11.16;nan;99229.47;6111073;23;20225;-83
2023/05/12 03:36:13;;;;;;;6.93;6.30;;;;;;;11.30;nan;99228.19;6134887;23;20632;-84
2023/05/12 03:38:40;;;;;;;7.10;6.50;;;;;;;11.33;nan;99241.97;6135273;23;20170;-83
2023/05/12 03:41:07;;;;;;;6.90;6.23;;;;;;;11.25;nan;99241.47;6135035;23;20609;-84
2023/05/12 03:43:34;;;;;;;6.70;6.17;;;;;;;11.22;nan;99237.41;6135393;23;20301;-84
2023/05/12 03:46:02;;;;;;;7.00;6.40;;;;;;;11.20;nan;99233.34;6135056;23;20173;-82
2023/05/12 03:48:29;;;;;;;6.63;6.03;;;;;;;11.17;nan;99237.28;6110837;23;20178;-84
2023/05/12 03:50:56;;;;;;;7.67;7.07;;;;;;;11.11;nan;99240.06;6110957;23;20181;-82
2023/05/12 03:53:23;;;;;;;7.30;6.60;;;;;;;11.04;nan;99240.19;6134295;23;20244;-83
2023/05/12 03:55:50;;;;;;;7.23;6.53;;;;;;;11.03;nan;99238.56;6134841;23;20170;-82
2023/05/12 03:58:17;;;;;;;8.00;7.20;;;;;;;10.99;nan;99248.94;6110804;23;20178;-82
2023/05/12 04:00:45;;;;;;;8.07;7.33;;;;;;;10.94;nan;99234.56;6110940;23;20170;-82
2023/05/12 04:03:12;;;;;;;7.53;6.83;;;;;;;10.90;nan;99236.91;6134629;23;20198;-84
2023/05/12 04:05:39;;;;;;;8.43;7.63;;;;;;;10.97;nan;99237.59;6134744;23;20213;-82
2023/05/12 04:08:06;;;;;;;7.87;7.07;;;;;;;10.95;nan;99239.72;6135366;23;20605;-83
2023/05/12 04:10:38;;;;;;;7.93;7.23;;;;;;;10.97;nan;99248.31;6111115;23;20174;-83
2023/05/12 04:13:06;;;;;;;8.17;7.43;;;;;;;10.99;nan;99246.25;6111202;23;20166;-84
2023/05/12 04:15:34;;;;;;;7.90;6.87;;;;;;;11.04;nan;99246.38;6110718;23;20178;-84
2023/05/12 04:18:02;;;;;;;7.90;7.20;;;;;;;10.99;nan;99254.28;6110942;23;20178;-82
2023/05/12 04:20:29;;;;;;;7.63;6.90;;;;;;;10.90;nan;99249.50;6134853;23;20174;-83
2023/05/12 04:22:55;;;;;;;7.40;6.70;;;;;;;10.91;nan;99251.94;6135048;23;20193;-85
2023/05/12 04:25:22;;;;;;;8.13;7.33;;;;;;;10.98;nan;99260.69;6134468;23;20206;-83
2023/05/12 04:27:49;;;;;;;8.13;7.43;;;;;;;11.02;nan;99263.72;6135034;23;20621;-82
2023/05/12 04:30:16;;;;;;;7.43;6.83;;;;;;;11.17;nan;99258.72;6134632;23;20186;-83
2023/05/12 04:32:43;;;;;;;7.50;6.90;;;;;;;11.10;nan;99254.53;6111129;23;20174;-85
2023/05/12 04:35:10;;;;;;;6.90;6.30;;;;;;;11.13;nan;99256.75;6135099;23;20166;-82
2023/05/12 04:37:37;;;;;;;7.60;6.90;;;;;;;11.06;nan;99262.19;6110593;23;20174;-82
2023/05/12 04:40:06;;;;;;;7.73;7.10;;;;;;;10.96;nan;99265.44;6110536;23;20236;-84
2023/05/12 04:42:33;;;;;;;7.30;6.70;;;;;;;10.99;nan;99261.50;6110816;23;20174;-81
2023/05/12 04:45:00;;;;;;;7.33;6.63;;;;;;;10.82;nan;99268.59;6110362;23;20191;-83
2023/05/12 04:47:28;;;;;;;7.30;6.57;;;;;;;10.89;nan;99269.28;6110811;23;20170;-83
2023/05/12 04:49:55;;;;;;;7.50;6.80;;;;;;;10.72;nan;99254.94;6134422;23;20170;-84
2023/05/12 04:52:21;;;;;;;7.83;7.00;;;;;;;10.84;nan;99258.44;6110362;23;20175;-82
2023/05/12 04:54:50;;;;;;;7.37;6.77;;;;;;;10.91;nan;99265.34;6134844;23;20174;-83
2023/05/12 04:57:17;;;;;;;6.90;6.30;;;;;;;10.92;nan;99264.28;6110817;23;20174;-84
2023/05/12 04:59:44;;;;;;;7.43;6.70;;;;;;;11.01;nan;99267.47;6134964;23;20167;-83
2023/05/12 05:02:11;;;;;;;7.30;6.70;;;;;;;11.15;nan;99276.91;6134762;23;20182;-82
2023/05/12 05:04:38;;;;;;;7.10;6.50;;;;;;;11.15;nan;99265.38;6134261;23;20212;-83
2023/05/12 05:07:05;;;;;;;6.50;6.00;;;;;;;11.21;nan;99264.44;6109801;23;20174;-83
2023/05/12 05:09:32;;;;;;;6.27;5.77;;;;;;;11.14;nan;99272.59;6110280;23;20181;-82
2023/05/12 05:12:01;;;;;;;6.63;6.13;;;;;;;11.17;nan;99266.78;6135132;23;20175;-82
2023/05/12 05:14:28;;;;;;;7.10;6.40;;;;;;;11.02;nan;99266.41;6110186;23;20174;-83
2023/05/12 05:16:55;;;;;;;7.37;6.30;;;;;;;10.93;nan;99278.50;6134273;23;20174;-86
2023/05/12 05:19:22;;;;;;;6.57;5.97;;;;;;;11.10;nan;99263.41;6109620;23;20197;-82
2023/05/12 05:22:04;;;;;;;6.77;6.17;;;;;;;11.16;nan;99267.00;6116375;23;20301;-83
2023/05/12 05:24:32;;;;;;;6.47;5.87;;;;;;;11.10;nan;99268.75;6134700;23;20225;-83
2023/05/12 05:26:58;;;;;;;7.10;6.40;;;;;;;11.31;nan;99262.00;6134017;23;20189;-82
2023/05/12 05:29:25;;;;;;;6.90;6.30;;;;;;;11.27;nan;99260.84;6134074;23;20226;-84
2023/05/12 05:31:52;;;;;;;6.37;5.87;;;;;;;11.25;nan;99274.47;6134252;23;20174;-83
2023/05/12 05:34:19;;;;;;;6.53;5.90;;;;;;;11.22;nan;99276.81;6134647;23;20224;-83
2023/05/12 05:36:46;;;;;;;6.10;5.60;;;;;;;11.25;nan;99279.81;6133882;23;20221;-83
2023/05/12 05:39:14;;;;;;;5.90;5.13;;;;;;;11.18;nan;99281.00;6158816;23;20198;-84
2023/05/12 05:41:40;;;;;;;6.13;5.50;;;;;;;11.37;nan;99285.22;6158799;23;20181;-82
2023/05/12 05:44:07;;;;;;;5.80;5.30;;;;;;;11.28;nan;99290.13;6158771;23;20198;-83
2023/05/12 05:46:34;;;;;;;5.30;4.90;;;;;;;11.30;nan;99279.13;6158709;23;20174;-84
2023/05/12 05:49:01;;;;;;;5.00;4.60;;;;;;;11.35;nan;99285.44;6158672;23;20170;-81
2023/05/12 05:51:29;;;;;;;5.27;4.77;;;;;;;11.33;nan;99284.06;6158972;23;20174;-83
2023/05/12 05:53:55;;;;;;;5.00;4.60;;;;;;;11.44;nan;99286.72;6183237;23;20175;-84
2023/05/12 05:56:23;;;;;;;5.57;5.07;;;;;;;11.56;nan;99296.66;6158840;23;20178;-84
2023/05/12 05:58:50;;;;;;;5.23;4.83;;;;;;;11.51;nan;99291.16;6158555;23;20249;-83
2023/05/12 06:01:16;;;;;;;4.83;4.43;;;;;;;11.56;nan;99293.97;6183406;23;20163;-83
2023/05/12 06:03:43;;;;;;;4.80;4.40;;;;;;;11.58;nan;99295.34;6158466;23;20241;-83
2023/05/12 06:06:10;;;;;;;4.80;4.40;;;;;;;11.65;nan;99296.06;6134219;23;20236;-85
2023/05/12 06:08:37;;;;;;;4.70;4.30;;;;;;;11.67;nan;99293.13;6159488;23;20177;-82
2023/05/12 06:11:04;;;;;;;4.57;4.20;;;;;;;11.73;nan;99298.41;6158859;23;20306;-82
2023/05/12 06:13:31;;;;;;;4.73;4.33;;;;;;;11.76;nan;99305.97;6158970;23;20167;-84
2023/05/12 06:15:58;;;;;;;4.70;4.30;;;;;;;11.86;nan;99311.56;6158818;23;20213;-84
2023/05/12 06:18:25;;;;;;;4.73;4.33;;;;;;;11.87;nan;99315.91;6135062;23;20197;-84
2023/05/12 06:20:52;;;;;;;4.90;4.50;;;;;;;11.89;nan;99308.44;6134674;23;20227;-83
2023/05/12 06:23:19;;;;;;;4.63;4.13;;;;;;;11.90;nan;99309.22;6184957;23;20186;-84
2023/05/12 06:25:48;;;;;;;5.80;5.30;;;;;;;11.76;nan;99305.16;6183131;23;20202;-82
2023/05/12 06:28:15;;;;;;;5.07;4.67;;;;;;;11.87;nan;99318.59;6134700;23;20182;-83
2023/05/12 06:30:41;;;;;;;8.20;7.57;;;;;;;11.86;nan;99316.13;6134476;23;20171;-83
2023/05/12 06:33:08;;;;;;;8.73;7.97;;;;;;;12.09;nan;99321.47;6133975;23;20174;-85
2023/05/12 06:35:35;;;;;;;7.53;6.90;;;;;;;12.03;nan;99324.28;6133847;23;20629;-84
2023/05/12 06:38:04;;;;;;;6.33;5.83;;;;;;;12.23;nan;99316.63;6157891;23;20205;-84
2023/05/12 06:40:31;;;;;;;5.10;4.70;;;;;;;12.40;nan;99319.41;6157975;23;20178;-83
2023/05/12 06:42:57;;;;;;;6.03;5.33;;;;;;;12.35;nan;99317.44;6134608;23;20196;-83
2023/05/12 06:45:25;;;;;;;6.03;5.53;;;;;;;12.24;nan;99312.91;6133302;23;20194;-85
2023/05/12 06:47:52;;;;;;;5.13;4.50;;;;;;;12.27;nan;99318.59;6134553;23;20625;-84
2023/05/12 06:50:19;;;;;;;6.03;5.43;;;;;;;12.37;nan;99318.00;6135737;23;20166;-84
2023/05/12 06:52:50;;;;;;;5.00;4.60;;;;;;;12.39;nan;99321.28;6138373;23;20166;-83
2023/05/12 06:55:19;;;;;;;4.90;4.43;;;;;;;12.34;nan;99327.38;6136381;23;20170;-83
2023/05/12 06:57:46;;;;;;;5.60;5.10;;;;;;;12.42;nan;99331.53;6161018;23;20177;-81
2023/05/12 07:00:13;;;;;;;5.47;4.93;;;;;;;12.45;nan;99325.69;6134626;23;20221;-83
2023/05/12 07:02:40;;;;;;;5.37;4.97;;;;;;;12.50;nan;99325.81;6159572;23;20194;-83
2023/05/12 07:05:07;;;;;;;5.37;4.87;;;;;;;12.70;nan;99325.34;6135452;23;20183;-83
2023/05/12 07:07:34;;;;;;;4.73;4.40;;;;;;;12.62;nan;99326.56;6160175;23;20170;-82
2023/05/12 07:10:02;;;;;;;4.80;4.40;;;;;;;12.56;nan;99314.06;6160150;23;20610;-84
2023/05/12 07:12:29;;;;;;;4.50;4.13;;;;;;;12.56;nan;99326.69;6136072;23;20174;-84
2023/05/12 07:14:55;;;;;;;4.03;3.70;;;;;;;12.62;nan;99318.50;6160228;23;20158;-84
2023/05/12 07:17:22;;;;;;;4.60;4.20;;;;;;;12.65;nan;99318.00;6159620;23;20177;-82
2023/05/12 07:19:50;;;;;;;4.50;4.10;;;;;;;12.71;nan;99322.44;6159714;23;20278;-83
2023/05/12 07:22:17;;;;;;;4.07;3.67;;;;;;;12.83;nan;99327.75;6159901;23;20174;-83
2023/05/12 07:24:46;;;;;;;3.90;3.60;;;;;;;12.65;nan;99322.56;6135767;23;20203;-85
2023/05/12 07:27:13;;;;;;;4.33;3.90;;;;;;;12.63;nan;99313.94;6134970;23;20178;-84
2023/05/12 07:29:40;;;;;;;4.37;3.97;;;;;;;12.58;nan;99321.91;6159943;23;20158;-82
2023/05/12 07:32:07;;;;;;;4.23;3.93;;;;;;;12.69;nan;99329.91;6159169;23;20179;-82
2023/05/12 07:34:33;;;;;;;4.80;4.40;;;;;;;12.65;nan;99320.69;6159772;23;20200;-84
2023/05/12 07:37:02;;;;;;;4.43;4.03;;;;;;;12.62;nan;99321.19;6159841;23;20171;-83
2023/05/12 07:39:31;;;;;;;3.73;3.40;;;;;;;12.49;nan;99326.84;6184652;23;20162;-84
2023/05/12 07:41:58;;;;;;;3.70;3.40;;;;;;;12.44;nan;99323.25;6159736;23;20174;-82
2023/05/12 07:44:26;;;;;;;4.53;4.00;;;;;;;12.48;nan;99327.09;6135139;23;20186;-84
2023/05/12 07:46:53;;;;;;;4.60;4.20;;;;;;;12.65;nan;99325.25;6135479;23;20628;-83
2023/05/12 07:49:22;;;;;;;4.83;4.37;;;;;;;12.73;nan;99322.19;6159146;23;20190;-83
2023/05/12 07:51:49;;;;;;;4.40;4.00;;;;;;;12.98;nan;99319.94;6135874;23;20222;-83
2023/05/12 07:54:15;;;;;;;4.63;4.20;;;;;;;13.31;nan;99329.13;6159745;23;20178;-84
2023/05/12 07:56:42;;;;;;;3.80;3.50;;;;;;;13.58;nan;99339.00;6159471;23;20273;-83
2023/05/12 07:59:10;;;;;;;4.20;3.90;;;;;;;13.56;nan;99343.00;6159398;23;20167;-83
2023/05/12 08:01:37;;;;;;;3.60;3.30;;;;;;;13.87;nan;99337.00;6158448;23;20190;-83
2023/05/12 08:04:05;;;;;;;3.30;3.00;;;;;;;13.81;nan;99339.88;6135364;23;20239;-82
2023/05/12 08:06:33;;;;;;;4.03;3.40;;;;;;;13.90;nan;99341.09;6135283;23;20709;-85
2023/05/12 08:09:00;;;;;;;3.50;3.20;;;;;;;13.96;nan;99338.22;6135508;23;20167;-83
2023/05/12 08:11:26;;;;;;;3.00;2.80;;;;;;;13.89;nan;99345.66;6135078;23;20172;-84
2023/05/12 08:13:53;;;;;;;3.87;2.90;;;;;;;13.95;nan;99344.66;6159720;23;20186;-82
2023/05/12 08:16:20;;;;;;;3.67;3.30;;;;;;;13.65;nan;99342.34;6159078;23;20172;-82
2023/05/12 08:18:47;;;;;;;3.73;3.43;;;;;;;13.57;nan;99345.47;6135023;23;20170;-83
2023/05/12 08:21:14;;;;;;;3.50;3.20;;;;;;;13.48;nan;99351.50;6134760;23;20545;-82
2023/05/12 08:23:40;;;;;;;3.57;3.27;;;;;;;13.35;nan;99346.41;6159045;23;20177;-83
2023/05/12 08:26:07;;;;;;;4.40;4.00;;;;;;;13.42;nan;99352.47;6134209;23;20202;-82
2023/05/12 08:28:34;;;;;;;3.50;3.20;;;;;;;13.56;nan;99348.38;6132426;23;20201;-83
2023/05/12 08:31:01;;;;;;;2.63;2.43;;;;;;;13.53;nan;99348.91;6157782;23;20167;-83
2023/05/12 08:33:30;;;;;;;3.53;2.93;;;;;;;13.51;nan;99346.44;6134495;23;20226;-84
2023/05/12 08:35:57;;;;;;;2.30;2.10;;;;;;;13.50;nan;99350.19;6158501;23;20171;-83
2023/05/12 08:38:24;;;;;;;3.00;2.30;;;;;;;13.51;nan;99351.81;6134866;23;20653;-83
2023/05/12 08:41:20;;;;;;;1.97;1.80;;;;;;;13.60;nan;99352.22;6134799;23;20202;-83
2023/05/12 08:43:51;;;;;;;2.43;2.00;;;;;;;13.75;nan;99354.34;6159451;23;20179;-83
2023/05/12 08:46:19;;;;;;;2.80;2.20;;;;;;;13.88;nan;99352.09;6134150;23;20652;-84
2023/05/12 08:48:47;;;;;;;2.33;2.13;;;;;;;13.88;nan;99362.88;6134538;23;20204;-83
2023/05/12 08:51:14;;;;;;;2.67;2.30;;;;;;;13.58;nan;99360.53;6134015;23;20166;-82
2023/05/12 08:53:41;;;;;;;3.07;2.50;;;;;;;13.70;nan;99354.25;6134204;23;20168;-82
2023/05/12 08:56:10;;;;;;;2.70;2.50;;;;;;;13.61;nan;99359.25;6134590;23;20170;-82
2023/05/12 08:58:41;;;;;;;2.70;2.50;;;;;;;13.75;nan;99360.53;6159411;23;20155;-83
2023/05/12 09:01:10;;;;;;;2.40;2.20;;;;;;;13.82;nan;99361.16;6158427;23;20170;-84
2023/05/12 09:03:37;;;;;;;2.50;2.30;;;;;;;13.86;nan;99370.38;6134157;23;20171;-84
2023/05/12 09:06:05;;;;;;;2.40;2.20;;;;;;;13.55;nan;99369.09;6157775;23;20190;-83
2023/05/12 09:08:33;;;;;;;2.60;2.43;;;;;;;13.54;nan;99367.47;6132549;23;20274;-84
2023/05/12 09:11:01;;;;;;;2.40;2.20;;;;;;;13.58;nan;99363.22;6134305;23;20220;-84
2023/05/12 09:13:39;;;;;;;2.37;2.17;;;;;;;13.59;nan;99374.81;6133960;23;20236;-84
2023/05/12 09:16:10;;;;;;;2.23;2.13;;;;;;;13.55;nan;99366.41;6134509;23;20186;-83
2023/05/12 09:18:51;;;;;;;3.00;2.63;;;;;;;13.54;nan;99378.22;6158597;23;20170;-85
2023/05/12 09:21:18;;;;;;;2.40;2.20;;;;;;;13.23;nan;99376.09;6134259;23;20174;-82
2023/05/12 09:23:54;;;;;;;2.90;2.40;;;;;;;13.14;nan;99372.19;6134798;23;20181;-84
2023/05/12 09:26:22;;;;;;;2.60;2.40;;;;;;;13.37;nan;99381.97;6158531;23;20272;-83
2023/05/12 09:28:50;;;;;;;2.43;2.23;;;;;;;13.31;nan;99380.25;6134177;23;20170;-82
2023/05/12 09:31:19;;;;;;;2.87;2.57;;;;;;;13.21;nan;99388.97;6158777;23;20224;-83
2023/05/12 09:33:46;;;;;;;3.07;2.77;;;;;;;13.08;nan;99381.16;6134398;23;20637;-84
2023/05/12 09:36:20;;;;;;;2.97;2.73;;;;;;;13.10;nan;99385.28;6158319;23;20162;-83
2023/05/12 09:39:03;;;;;;;2.97;2.77;;;;;;;12.96;nan;99378.56;6134217;23;20245;-82
2023/05/12 09:41:33;;;;;;;2.80;2.60;;;;;;;13.09;nan;99386.31;6134256;23;20225;-82
2023/05/12 09:44:00;;;;;;;2.83;2.63;;;;;;;13.20;nan;99390.03;6158690;23;20174;-82
2023/05/12 09:46:27;;;;;;;2.77;2.57;;;;;;;13.07;nan;99391.13;6158412;23;20193;-80
2023/05/12 09:48:56;;;;;;;4.03;3.70;;;;;;;13.02;nan;99388.31;6134039;23;20170;-82
2023/05/12 09:51:23;;;;;;;3.57;3.27;;;;;;;13.00;nan;99395.84;6133699;23;20174;-84
2023/05/12 09:53:50;;;;;;;3.90;3.60;;;;;;;13.06;nan;99397.56;6133913;23;20167;-83
2023/05/12 09:56:17;;;;;;;3.17;2.90;;;;;;;13.16;nan;99395.06;6133714;23;20162;-81
2023/05/12 09:58:48;;;;;;;3.60;3.30;;;;;;;13.18;nan;99397.53;6134321;23;20181;-83
2023/05/12 10:01:21;;;;;;;3.17;2.97;;;;;;;13.20;nan;99403.50;6133801;23;20177;-81
2023/05/12 10:03:55;;;;;;;4.53;3.40;;;;;;;13.25;nan;99405.47;6134766;23;20158;-83
2023/05/12 10:06:33;;;;;;;3.40;3.10;;;;;;;13.23;nan;99406.50;6134005;23;20178;-80
2023/05/12 10:09:02;;;;;;;3.30;3.00;;;;;;;13.31;nan;99405.28;6134013;23;20170;-81
2023/05/12 10:11:29;;;;;;;3.47;3.17;;;;;;;13.37;nan;99398.13;6133747;23;20174;-83
2023/05/12 10:13:59;;;;;;;3.37;3.10;;;;;;;13.40;nan;99408.41;6134940;23;20174;-82
2023/05/12 10:16:27;;;;;;;3.70;3.40;;;;;;;13.39;nan;99404.88;6133574;23;20176;-84
2023/05/12 10:18:55;;;;;;;4.03;3.60;;;;;;;13.37;nan;99403.50;6158384;23;20163;-83
2023/05/12 10:21:23;;;;;;;3.87;3.47;;;;;;;13.63;nan;99402.88;6158278;23;20213;-83
2023/05/12 10:23:51;;;;;;;4.07;3.67;;;;;;;13.95;nan;99405.81;6134351;23;20179;-82
2023/05/12 10:26:18;;;;;;;3.97;3.67;;;;;;;14.22;nan;99404.03;6113218;23;20289;-82
2023/05/12 10:28:45;;;;;;;4.27;3.97;;;;;;;14.48;nan;99406.03;6110832;23;20175;-81
2023/05/12 10:31:13;;;;;;;3.83;3.53;;;;;;;14.32;nan;99397.97;6135323;23;20171;-82
2023/05/12 10:33:39;;;;;;;3.57;3.27;;;;;;;14.12;nan;99403.91;6135054;23;20217;-82
2023/05/12 10:36:19;;;;;;;3.73;3.43;;;;;;;14.07;nan;99407.34;6111671;23;20174;-83
2023/05/12 10:38:49;;;;;;;4.10;3.47;;;;;;;14.04;nan;99409.72;6111654;23;20261;-83
2023/05/12 10:41:16;;;;;;;3.60;3.30;;;;;;;14.22;nan;99403.22;6135466;23;20187;-83
2023/05/12 10:43:47;;;;;;;4.03;3.47;;;;;;;14.27;nan;99408.69;6135770;23;20172;-83
2023/05/12 10:46:16;;;;;;;3.60;3.20;;;;;;;14.00;nan;99416.63;6110482;23;20186;-83
2023/05/12 10:49:01;;;;;;;3.70;3.40;;;;;;;13.89;nan;99412.16;6135102;23;20171;-84
2023/05/12 10:51:29;;;;;;;4.03;3.73;;;;;;;13.67;nan;99420.97;6135020;23;20175;-83
2023/05/12 10:54:07;;;;;;;5.37;4.00;;;;;;;13.66;nan;99424.75;6108964;23;20195;-82
2023/05/12 10:56:39;;;;;;;4.00;3.70;;;;;;;13.71;nan;99417.81;6133898;23;20158;-83
2023/05/12 10:59:08;;;;;;;4.27;3.87;;;;;;;13.54;nan;99426.69;6185593;23;20155;-83
2023/05/12 11:01:35;;;;;;;4.40;4.00;;;;;;;13.53;nan;99422.34;6134141;23;20602;-83
2023/05/12 11:04:11;;;;;;;4.17;3.87;;;;;;;13.65;nan;99416.91;6109383;23;20175;-81
2023/05/12 11:06:39;;;;;;;4.40;4.00;;;;;;;13.65;nan;99403.44;6134405;23;20267;-81
2023/05/12 11:09:06;;;;;;;4.33;3.93;;;;;;;13.61;nan;99419.28;6111992;23;20164;-83
2023/05/12 11:11:34;;;;;;;4.47;4.07;;;;;;;13.50;nan;99422.84;6133477;23;20171;-83
2023/05/12 11:14:02;;;;;;;5.10;4.30;;;;;;;13.49;nan;99420.38;6134867;23;20172;-83
2023/05/12 11:16:28;;;;;;;3.97;3.67;;;;;;;13.35;nan;99427.97;6109685;23;20174;-83
2023/05/12 11:19:05;;;;;;;3.77;3.43;;;;;;;13.35;nan;99424.44;6109994;23;20247;-84
2023/05/12 11:21:32;;;;;;;4.67;3.90;;;;;;;13.19;nan;99423.38;6110517;23;20198;-83
2023/05/12 11:24:00;;;;;;;3.90;3.60;;;;;;;13.22;nan;99433.66;6110540;23;20161;-83
2023/05/12 11:26:28;;;;;;;4.40;3.60;;;;;;;13.17;nan;99429.00;6133850;23;20207;-82
2023/05/12 11:29:02;;;;;;;4.70;3.50;;;;;;;13.05;nan;99430.91;6131714;23;20172;-83
2023/05/12 11:31:29;;;;;;;7.13;4.00;;;;;;;12.83;nan;99427.22;6132342;23;20181;-83
2023/05/12 11:34:07;;;;;;;4.33;3.93;;;;;;;12.74;nan;99425.97;6158717;23;20171;-82
2023/05/12 11:36:42;;;;;;;3.90;3.50;;;;;;;12.60;nan;99436.16;6136420;23;20171;-84
2023/05/12 11:39:15;;;;;;;5.07;4.47;;;;;;;12.53;nan;99437.34;6134748;23;20173;-83
2023/05/12 11:41:43;;;;;;;4.70;4.30;;;;;;;12.45;nan;99443.09;6134861;23;20167;-84
2023/05/12 11:44:12;;;;;;;4.30;3.90;;;;;;;12.36;nan;99429.22;6134715;23;20175;-82
2023/05/12 11:46:40;;;;;;;4.40;4.00;;;;;;;12.54;nan;99430.94;6183200;23;20263;-83
2023/05/12 11:49:13;;;;;;;4.10;3.70;;;;;;;12.57;nan;99438.50;6134643;23;20279;-84
2023/05/12 11:51:43;;;;;;;5.10;4.10;;;;;;;12.59;nan;99444.47;6159173;23;20177;-83
2023/05/12 11:54:10;;;;;;;4.87;4.47;;;;;;;12.51;nan;99442.97;6134986;23;20183;-82
2023/05/12 11:56:36;;;;;;;4.50;4.10;;;;;;;12.46;nan;99442.84;6158724;23;20174;-83